createdAt,value
2019-03-02T00:01:48.925Z,101024.54
2019-03-02T00:04:20.110Z,101019.00
2019-03-02T00:06:50.705Z,101020.72
2019-03-02T00:09:21.092Z,101015.86
2019-03-02T00:11:52.999Z,101015.34
2019-03-02T00:14:23.465Z,101007.50
2019-03-02T00:16:53.802Z,101007.02
2019-03-02T00:19:24.541Z,101010.98
2019-03-02T00:21:54.923Z,101007.08
2019-03-02T00:24:25.312Z,101008.75
2019-03-02T00:26:55.922Z,101010.23
2019-03-02T00:29:26.560Z,101014.37
2019-03-02T00:31:56.838Z,101008.29
2019-03-02T00:34:28.784Z,101000.15
2019-03-02T00:36:59.425Z,101001.11
2019-03-02T00:39:29.917Z,101005.87
2019-03-02T00:42:00.368Z,100997.17
2019-03-02T00:44:30.672Z,100996.65
2019-03-02T00:47:01.373Z,101001.44
2019-03-02T00:49:31.921Z,100994.14
2019-03-02T00:52:02.302Z,100993.21
2019-03-02T00:54:32.850Z,100999.42
2019-03-02T00:57:03.116Z,100996.65
2019-03-02T00:59:35.821Z,101000.11
2019-03-02T01:02:06.558Z,100994.93
2019-03-02T01:04:37.427Z,100991.27
2019-03-02T01:07:08.372Z,100987.32
2019-03-02T01:09:38.588Z,100993.64
2019-03-02T01:12:09.257Z,100984.29
2019-03-02T01:14:40.233Z,100987.32
2019-03-02T01:17:10.622Z,100985.07
2019-03-02T01:19:41.241Z,100972.27
2019-03-02T01:22:16.547Z,100968.54
2019-03-02T01:24:46.764Z,100962.41
2019-03-02T01:27:17.220Z,100967.91
2019-03-02T01:29:47.850Z,100966.70
2019-03-02T01:32:18.093Z,100968.03
2019-03-02T01:34:48.395Z,100968.17
2019-03-02T01:37:18.708Z,100973.22
2019-03-02T01:39:48.988Z,100968.32
2019-03-02T01:42:19.275Z,100968.57
2019-03-02T01:44:51.722Z,100967.39
2019-03-02T01:47:21.782Z,100969.97
2019-03-02T01:49:52.275Z,100969.89
2019-03-02T01:52:22.651Z,100966.53
2019-03-02T01:54:55.795Z,100972.00
2019-03-02T01:57:25.604Z,100963.03
2019-03-02T01:59:55.832Z,100960.38
2019-03-02T02:02:26.139Z,100963.81
2019-03-02T02:04:57.482Z,100961.02
2019-03-02T02:07:28.302Z,100958.91
2019-03-02T02:09:58.560Z,100954.14
2019-03-02T02:12:29.663Z,100961.21
2019-03-02T02:15:00.264Z,100956.09
2019-03-02T02:17:30.609Z,100948.92
2019-03-02T02:20:00.903Z,100950.94
2019-03-02T02:22:31.125Z,100951.97
2019-03-02T02:25:02.048Z,100939.34
2019-03-02T02:27:32.287Z,100944.95
2019-03-02T02:30:19.017Z,100948.53
2019-03-02T02:32:49.149Z,100946.03
2019-03-02T02:35:19.793Z,100937.16
2019-03-02T02:37:50.219Z,100937.55
2019-03-02T02:40:20.465Z,100934.91
2019-03-02T02:42:50.799Z,100930.54
2019-03-02T02:45:21.626Z,100934.36
2019-03-02T02:47:54.421Z,100928.13
2019-03-02T02:50:29.584Z,100918.94
2019-03-02T02:53:06.674Z,100922.41
2019-03-02T02:55:35.975Z,100922.56
2019-03-02T02:58:06.708Z,100908.94
2019-03-02T03:00:36.957Z,100914.74
2019-03-02T03:03:07.184Z,100915.92
2019-03-02T03:05:38.239Z,100911.20
2019-03-02T03:08:09.902Z,100910.19
2019-03-02T03:10:41.891Z,100903.41
2019-03-02T03:13:12.193Z,100900.64
2019-03-02T03:15:47.657Z,100898.88
2019-03-02T03:18:18.113Z,100896.97
2019-03-02T03:20:50.406Z,100894.91
2019-03-02T03:23:24.786Z,100898.03
2019-03-02T03:25:56.976Z,100893.32
2019-03-02T03:28:26.126Z,100890.83
2019-03-02T03:30:56.545Z,100887.63
2019-03-02T03:33:26.837Z,100890.75
2019-03-02T03:35:57.732Z,100889.08
2019-03-02T03:38:29.637Z,100894.97
2019-03-02T03:41:05.303Z,100889.62
2019-03-02T03:43:41.444Z,100889.00
2019-03-02T03:46:04.925Z,100882.77
2019-03-02T03:48:35.322Z,100891.41
2019-03-02T03:51:05.721Z,100891.69
2019-03-02T03:53:36.299Z,100882.03
2019-03-02T03:56:06.539Z,100881.37
2019-03-02T03:58:39.945Z,100879.03
2019-03-02T04:01:17.028Z,100877.70
2019-03-02T04:03:41.108Z,100878.33
2019-03-02T04:06:11.417Z,100872.45
2019-03-02T04:08:42.331Z,100876.34
2019-03-02T04:11:12.669Z,100871.59
2019-03-02T04:13:44.858Z,100873.50
2019-03-02T04:16:16.270Z,100877.00
2019-03-02T04:18:57.237Z,100880.98
2019-03-02T04:21:29.798Z,100875.56
2019-03-02T04:24:01.554Z,100880.98
2019-03-02T04:26:36.530Z,100876.89
2019-03-02T04:29:09.048Z,100879.19
2019-03-02T04:31:36.786Z,100886.97
2019-03-02T04:34:07.297Z,100884.05
2019-03-02T04:36:39.066Z,100886.39
2019-03-02T04:39:13.360Z,100889.27
2019-03-02T04:41:41.734Z,100882.29
2019-03-02T04:44:12.892Z,100885.95
2019-03-02T04:46:43.271Z,100888.20
2019-03-02T04:49:14.697Z,100889.60
2019-03-02T04:51:46.360Z,100895.23
2019-03-02T04:54:16.562Z,100893.91
2019-03-02T04:56:48.671Z,100898.03
2019-03-02T04:59:22.025Z,100894.33
2019-03-02T05:01:52.265Z,100890.11
2019-03-02T05:04:22.488Z,100888.94
2019-03-02T05:06:54.583Z,100897.91
2019-03-02T05:09:24.772Z,100890.91
2019-03-02T05:11:55.532Z,100895.27
2019-03-02T05:14:27.470Z,100896.05
2019-03-02T05:16:57.758Z,100891.58
2019-03-02T05:19:29.180Z,100890.72
2019-03-02T05:22:00.580Z,100884.81
2019-03-02T05:24:30.928Z,100885.82
2019-03-02T05:27:01.650Z,100886.28
2019-03-02T05:29:32.251Z,100885.43
2019-03-02T05:32:02.582Z,100889.00
2019-03-02T05:34:32.837Z,100886.28
2019-03-02T05:37:03.912Z,100886.61
2019-03-02T05:39:34.267Z,100893.14
2019-03-02T05:42:04.504Z,100890.03
2019-03-02T05:44:34.945Z,100889.57
2019-03-02T05:47:05.443Z,100890.43
2019-03-02T05:49:35.766Z,100884.28
2019-03-02T05:52:06.051Z,100891.28
2019-03-02T05:54:38.674Z,100885.28
2019-03-02T05:57:08.505Z,100886.06
2019-03-02T05:59:40.229Z,100876.19
2019-03-02T06:02:13.875Z,100873.15
2019-03-02T06:04:42.487Z,100877.13
2019-03-02T06:07:12.747Z,100880.44
2019-03-02T06:09:43.057Z,100890.63
2019-03-02T06:12:15.499Z,100888.08
2019-03-02T06:14:45.886Z,100887.89
2019-03-02T06:17:16.146Z,100882.91
2019-03-02T06:19:46.354Z,100881.12
2019-03-02T06:22:17.644Z,100880.02
2019-03-02T06:24:48.539Z,100870.36
2019-03-02T06:27:19.083Z,100875.58
2019-03-02T06:29:49.783Z,100867.72
2019-03-02T06:32:20.005Z,100871.69
2019-03-02T06:34:51.836Z,100865.07
2019-03-02T06:37:22.694Z,100872.55
2019-03-02T06:39:53.086Z,100878.94
2019-03-02T06:42:23.306Z,100876.88
2019-03-02T06:44:53.570Z,100886.09
2019-03-02T06:47:23.811Z,100883.73
2019-03-02T06:49:59.141Z,100881.83
2019-03-02T06:52:26.961Z,100884.05
2019-03-02T06:54:57.187Z,100883.70
2019-03-02T06:57:32.161Z,100880.66
2019-03-02T07:00:03.980Z,100870.84
2019-03-02T07:02:35.152Z,100869.59
2019-03-02T07:05:07.524Z,100872.45
2019-03-02T07:07:37.795Z,100866.88
2019-03-02T07:10:11.913Z,100877.66
2019-03-02T07:12:45.582Z,100876.05
2019-03-02T07:15:15.716Z,100871.23
2019-03-02T07:18:11.578Z,100875.21
2019-03-02T07:20:42.492Z,100872.28
2019-03-02T07:23:12.797Z,100869.47
2019-03-02T07:25:45.628Z,100870.33
2019-03-02T07:28:16.920Z,100864.83
2019-03-02T07:30:47.238Z,100870.39
2019-03-02T07:33:18.142Z,100857.37
2019-03-02T07:35:51.797Z,100856.05
2019-03-02T07:38:21.585Z,100852.47
2019-03-02T07:40:54.257Z,100852.52
2019-03-02T07:43:25.172Z,100853.45
2019-03-02T07:45:55.607Z,100861.14
2019-03-02T07:48:26.513Z,100861.34
2019-03-02T07:50:56.708Z,100865.11
2019-03-02T07:53:29.067Z,100851.58
2019-03-02T07:55:59.511Z,100856.75
2019-03-02T07:58:30.013Z,100860.18
2019-03-02T08:01:00.538Z,100868.91
2019-03-02T08:03:30.887Z,100876.23
2019-03-02T08:06:01.475Z,100868.02
2019-03-02T08:08:31.732Z,100874.77
2019-03-02T08:11:02.535Z,100875.12
2019-03-02T08:13:36.250Z,100870.94
2019-03-02T08:16:04.667Z,100877.64
2019-03-02T08:18:34.948Z,100873.66
2019-03-02T08:21:05.198Z,100876.56
2019-03-02T08:23:35.444Z,100873.45
2019-03-02T08:26:05.695Z,100871.34
2019-03-02T08:28:36.004Z,100873.06
2019-03-02T08:31:08.947Z,100872.94
2019-03-02T08:33:45.943Z,100875.97
2019-03-02T08:36:16.891Z,100877.09
2019-03-02T08:38:46.066Z,100873.27
2019-03-02T08:41:16.924Z,100869.56
2019-03-02T08:43:47.319Z,100867.52
2019-03-02T08:46:17.676Z,100864.71
2019-03-02T08:48:48.410Z,100870.74
2019-03-02T08:51:18.764Z,100871.70
2019-03-02T08:53:50.254Z,100872.23
2019-03-02T08:56:21.723Z,100872.24
2019-03-02T08:58:52.130Z,100862.50
2019-03-02T09:01:22.436Z,100864.77
2019-03-02T09:03:53.022Z,100869.22
2019-03-02T09:06:23.437Z,100877.30
2019-03-02T09:08:54.031Z,100875.38
2019-03-02T09:11:24.437Z,100864.21
2019-03-02T09:13:55.617Z,100866.15
2019-03-02T09:16:25.996Z,100868.41
2019-03-02T09:18:57.929Z,100866.70
2019-03-02T09:21:28.572Z,100867.17
2019-03-02T09:23:59.036Z,100870.92
2019-03-02T09:26:29.321Z,100870.20
2019-03-02T09:29:00.083Z,100873.27
2019-03-02T09:31:30.647Z,100871.86
2019-03-02T09:34:04.188Z,100873.66
2019-03-02T09:36:34.575Z,100877.00
2019-03-02T09:39:08.511Z,100873.64
2019-03-02T09:41:39.263Z,100877.45
2019-03-02T09:44:09.928Z,100876.70
2019-03-02T09:46:40.540Z,100871.39
2019-03-02T09:49:11.719Z,100872.04
2019-03-02T09:51:44.717Z,100876.70
2019-03-02T09:54:15.678Z,100868.73
2019-03-02T09:56:48.682Z,100865.31
2019-03-02T09:59:19.182Z,100867.93
2019-03-02T10:01:50.155Z,100866.60
2019-03-02T10:04:21.014Z,100871.66
2019-03-02T10:06:51.747Z,100868.70
2019-03-02T10:09:24.929Z,100871.58
2019-03-02T10:11:54.415Z,100878.13
2019-03-02T10:14:26.767Z,100873.16
2019-03-02T10:16:57.288Z,100875.34
2019-03-02T10:19:28.880Z,100880.09
2019-03-02T10:21:59.739Z,100875.16
2019-03-02T10:24:30.169Z,100880.93
2019-03-02T10:27:00.363Z,100876.22
2019-03-02T10:29:32.287Z,100876.22
2019-03-02T10:32:04.441Z,100868.22
2019-03-02T10:34:34.838Z,100864.93
2019-03-02T10:37:07.286Z,100871.39
2019-03-02T10:39:37.020Z,100870.35
2019-03-02T10:42:07.549Z,100873.52
2019-03-02T10:44:38.721Z,100867.48
2019-03-02T10:47:11.505Z,100871.80
2019-03-02T10:49:44.627Z,100863.50
2019-03-02T10:52:14.495Z,100870.31
2019-03-02T10:54:44.981Z,100865.92
2019-03-02T10:57:15.250Z,100861.28
2019-03-02T10:59:47.789Z,100856.98
2019-03-02T11:02:20.142Z,100853.38
2019-03-02T11:04:54.369Z,100856.44
2019-03-02T11:07:37.077Z,100849.72
2019-03-02T11:10:22.326Z,100846.44
2019-03-02T11:13:11.220Z,100846.70
2019-03-02T11:15:59.150Z,100847.19
2019-03-02T11:18:52.551Z,100840.70
2019-03-02T11:21:34.557Z,100842.05
2019-03-02T11:24:19.925Z,100843.94
2019-03-02T11:26:56.757Z,100849.30
2019-03-02T11:29:52.688Z,100838.45
2019-03-02T11:32:30.959Z,100831.53
2019-03-02T11:35:14.971Z,100828.17
2019-03-02T11:38:04.703Z,100824.02
2019-03-02T11:40:50.762Z,100823.66
2019-03-02T11:43:48.542Z,100821.80
2019-03-02T11:46:38.464Z,100818.88
2019-03-02T11:49:30.357Z,100824.19
2019-03-02T11:52:18.072Z,100813.77
2019-03-02T11:55:08.137Z,100809.47
2019-03-02T11:58:09.260Z,100806.39
2019-03-02T12:01:13.431Z,100808.94
2019-03-02T12:03:54.978Z,100806.16
2019-03-02T12:06:53.302Z,100810.13
2019-03-02T12:09:38.317Z,100816.23
2019-03-02T12:12:26.060Z,100811.27
2019-03-02T12:15:19.731Z,100803.69
2019-03-02T12:18:02.485Z,100798.17
2019-03-02T12:21:10.556Z,100796.50
2019-03-02T12:23:59.771Z,100797.33
2019-03-02T12:26:56.866Z,100797.00
2019-03-02T12:29:49.719Z,100787.70
2019-03-02T12:32:44.279Z,100790.16
2019-03-02T12:35:24.106Z,100797.06
2019-03-02T12:38:02.936Z,100779.88
2019-03-02T12:40:40.935Z,100791.38
2019-03-02T12:43:22.387Z,100780.73
2019-03-02T12:45:57.744Z,100772.57
2019-03-02T12:48:46.464Z,100763.45
2019-03-02T12:51:35.207Z,100762.41
2019-03-02T12:54:31.963Z,100763.80
2019-03-02T12:57:27.682Z,100762.15
2019-03-02T13:00:29.311Z,100757.80
2019-03-02T13:03:31.093Z,100757.92
2019-03-02T13:06:32.126Z,100755.40
2019-03-02T13:09:10.527Z,100750.14
2019-03-02T13:12:05.688Z,100748.20
2019-03-02T13:15:10.378Z,100744.36
2019-03-02T13:17:53.327Z,100740.42
2019-03-02T13:20:29.975Z,100742.18
2019-03-02T13:23:28.379Z,100745.87
2019-03-02T13:26:13.775Z,100739.70
2019-03-02T13:28:58.037Z,100744.41
2019-03-02T13:31:40.015Z,100732.88
2019-03-02T13:34:37.829Z,100736.91
2019-03-02T13:37:29.731Z,100734.48
2019-03-02T13:40:26.342Z,100728.07
2019-03-02T13:43:05.588Z,100726.11
2019-03-02T13:46:01.975Z,100721.27
2019-03-02T13:48:43.921Z,100730.50
2019-03-02T13:51:37.527Z,100719.59
2019-03-02T13:54:22.401Z,100723.48
2019-03-02T13:57:14.810Z,100734.06
2019-03-02T14:00:07.747Z,100727.46
2019-03-02T14:03:01.779Z,100723.63
2019-03-02T14:06:08.996Z,100716.05
2019-03-02T14:08:57.554Z,100709.34
2019-03-02T14:11:50.187Z,100709.24
2019-03-02T14:14:33.408Z,100713.36
2019-03-02T14:17:24.353Z,100699.78
2019-03-02T14:20:20.802Z,100704.53
2019-03-02T14:23:13.885Z,100692.22
2019-03-02T14:25:49.674Z,100679.69
2019-03-02T14:28:34.871Z,100689.34
2019-03-02T14:31:41.758Z,100685.48
2019-03-02T14:34:24.874Z,100689.77
2019-03-02T14:37:32.494Z,100695.09
2019-03-02T14:40:19.840Z,100689.94
2019-03-02T14:43:15.765Z,100692.13
2019-03-02T14:45:59.156Z,100691.27
2019-03-02T14:48:41.916Z,100688.89
2019-03-02T14:51:26.012Z,100691.73
2019-03-02T14:54:20.793Z,100701.63
2019-03-02T14:57:21.029Z,100683.86
2019-03-02T15:00:18.737Z,100683.03
2019-03-02T15:03:13.785Z,100677.23
2019-03-02T15:06:08.629Z,100671.56
2019-03-02T15:08:55.570Z,100663.19
2019-03-02T15:11:53.870Z,100664.72
2019-03-02T15:14:42.506Z,100672.02
2019-03-02T15:17:20.590Z,100670.98
2019-03-02T15:20:10.305Z,100671.27
2019-03-02T15:23:15.814Z,100667.06
2019-03-02T15:25:55.439Z,100662.59
2019-03-02T15:28:50.810Z,100655.03
2019-03-02T15:31:39.253Z,100652.19
2019-03-02T15:34:33.916Z,100656.37
2019-03-02T15:37:30.360Z,100656.63
2019-03-02T15:40:08.822Z,100647.02
2019-03-02T15:42:58.502Z,100641.05
2019-03-02T15:45:58.763Z,100642.84
2019-03-02T15:48:37.268Z,100634.40
2019-03-02T15:51:32.845Z,100633.27
2019-03-02T15:54:15.867Z,100633.55
2019-03-02T15:57:02.779Z,100633.05
2019-03-02T15:59:59.064Z,100626.86
2019-03-02T16:02:47.153Z,100621.27
2019-03-02T16:05:25.533Z,100618.89
2019-03-02T16:08:18.085Z,100610.91
2019-03-02T16:11:32.140Z,100616.05
2019-03-02T16:14:16.084Z,100608.64
2019-03-02T16:17:05.321Z,100608.14
2019-03-02T16:19:57.655Z,100604.00
2019-03-02T16:22:45.596Z,100599.04
2019-03-02T16:25:39.853Z,100604.45
2019-03-02T16:28:29.722Z,100592.84
2019-03-02T16:31:15.785Z,100589.55
2019-03-02T16:34:08.427Z,100592.02
2019-03-02T16:36:55.431Z,100594.30
2019-03-02T16:39:44.609Z,100590.78
2019-03-02T16:42:21.595Z,100585.95
2019-03-02T16:45:07.472Z,100587.55
2019-03-02T16:47:45.015Z,100588.12
2019-03-02T16:50:23.166Z,100587.34
2019-03-02T16:53:16.032Z,100590.97
2019-03-02T16:56:03.565Z,100580.14
2019-03-02T16:58:53.067Z,100584.70
2019-03-02T17:01:34.385Z,100565.35
2019-03-02T17:04:22.438Z,100567.05
2019-03-02T17:07:15.060Z,100555.25
2019-03-02T17:10:10.654Z,100555.42
2019-03-02T17:12:58.999Z,100549.54
2019-03-02T17:16:02.653Z,100545.94
2019-03-02T17:19:03.549Z,100540.44
2019-03-02T17:22:04.733Z,100526.31
2019-03-02T17:25:03.227Z,100524.67
2019-03-02T17:28:01.890Z,100523.15
2019-03-02T17:30:53.700Z,100529.81
2019-03-02T17:33:58.189Z,100513.58
2019-03-02T17:36:50.461Z,100524.83
2019-03-02T17:39:45.548Z,100530.23
2019-03-02T17:42:32.872Z,100529.57
2019-03-02T17:45:18.936Z,100532.31
2019-03-02T17:47:55.764Z,100533.17
2019-03-02T17:50:37.662Z,100533.55
2019-03-02T17:53:18.996Z,100535.83
2019-03-02T17:56:10.761Z,100539.72
2019-03-02T17:59:00.285Z,100539.23
2019-03-02T18:01:49.272Z,100529.38
2019-03-02T18:04:37.739Z,100529.76
2019-03-02T18:07:25.981Z,100535.45
2019-03-02T18:10:20.905Z,100528.94
2019-03-02T18:13:17.379Z,100517.65
2019-03-02T18:16:06.571Z,100512.13
2019-03-02T18:18:37.438Z,100512.66
2019-03-02T18:21:08.048Z,100513.42
2019-03-02T18:23:38.640Z,100517.97
2019-03-02T18:26:11.071Z,100515.47
2019-03-02T18:28:41.102Z,100517.37
2019-03-02T18:31:11.636Z,100508.17
2019-03-02T18:33:47.739Z,100512.44
2019-03-02T18:36:18.936Z,100509.84
2019-03-02T18:38:50.377Z,100502.55
2019-03-02T18:41:22.838Z,100493.45
2019-03-02T18:43:53.472Z,100494.48
2019-03-02T18:46:23.641Z,100491.52
2019-03-02T18:49:16.515Z,100493.78
2019-03-02T18:52:02.754Z,100488.86
2019-03-02T18:54:33.726Z,100479.77
2019-03-02T18:57:04.361Z,100476.48
2019-03-02T18:59:35.406Z,100469.19
2019-03-02T19:02:11.527Z,100473.16
2019-03-02T19:04:38.588Z,100478.09
2019-03-02T19:07:09.261Z,100472.22
2019-03-02T19:09:40.030Z,100476.20
2019-03-02T19:12:10.486Z,100468.37
2019-03-02T19:14:40.681Z,100478.89
2019-03-02T19:17:10.984Z,100471.52
2019-03-02T19:19:41.371Z,100466.21
2019-03-02T19:22:11.668Z,100472.69
2019-03-02T19:24:42.219Z,100464.79
2019-03-02T19:27:12.842Z,100468.77
2019-03-02T19:29:43.275Z,100453.89
2019-03-02T19:32:13.807Z,100445.92
2019-03-02T19:34:44.289Z,100444.41
2019-03-02T19:37:14.708Z,100435.77
2019-03-02T19:39:46.140Z,100428.68
2019-03-02T19:42:16.923Z,100426.57
2019-03-02T19:44:47.251Z,100419.39
2019-03-02T19:47:17.622Z,100419.30
2019-03-02T19:49:48.460Z,100411.22
2019-03-02T19:52:18.981Z,100396.34
2019-03-02T19:54:49.597Z,100397.01
2019-03-02T19:57:20.278Z,100397.48
2019-03-02T19:59:50.633Z,100395.19
2019-03-02T20:02:20.924Z,100394.49
2019-03-02T20:04:53.760Z,100390.48
2019-03-02T20:07:26.185Z,100391.15
2019-03-02T20:09:56.799Z,100393.30
2019-03-02T20:12:27.190Z,100380.61
2019-03-02T20:14:57.903Z,100377.77
2019-03-02T20:17:28.163Z,100373.78
2019-03-02T20:19:58.581Z,100377.58
2019-03-02T20:22:28.783Z,100370.38
2019-03-02T20:24:59.178Z,100362.42
2019-03-02T20:27:29.575Z,100356.17
2019-03-02T20:30:00.330Z,100348.59
2019-03-02T20:32:30.957Z,100343.86
2019-03-02T20:35:01.240Z,100341.30
2019-03-02T20:37:31.682Z,100342.91
2019-03-02T20:40:01.977Z,100337.42
2019-03-02T20:42:32.226Z,100335.72
2019-03-02T20:45:02.453Z,100331.14
2019-03-02T20:47:32.738Z,100327.73
2019-03-02T20:50:03.325Z,100323.00
2019-03-02T20:52:33.794Z,100322.05
2019-03-02T20:55:05.108Z,100312.98
2019-03-02T20:57:35.370Z,100314.38
2019-03-02T21:00:08.600Z,100311.92
2019-03-02T21:02:38.882Z,100304.31
2019-03-02T21:05:10.489Z,100304.98
2019-03-02T21:07:41.144Z,100302.42
2019-03-02T21:10:12.791Z,100298.16
2019-03-02T21:12:42.983Z,100294.09
2019-03-02T21:15:15.932Z,100282.64
2019-03-02T21:17:46.259Z,100283.65
2019-03-02T21:20:18.458Z,100274.66
2019-03-02T21:22:50.853Z,100275.23
2019-03-02T21:25:24.426Z,100270.12
2019-03-02T21:27:54.725Z,100265.20
2019-03-02T21:30:25.210Z,100263.30
2019-03-02T21:32:55.496Z,100261.41
2019-03-02T21:35:26.532Z,100249.57
2019-03-02T21:37:56.851Z,100241.91
2019-03-02T21:40:27.161Z,100234.17
2019-03-02T21:42:57.802Z,100233.28
2019-03-02T21:45:28.087Z,100234.17
2019-03-02T21:47:58.418Z,100229.25
2019-03-02T21:50:29.408Z,100228.87
2019-03-02T21:52:59.875Z,100223.35
2019-03-02T21:55:30.976Z,100220.13
2019-03-02T21:58:01.261Z,100220.03
2019-03-02T22:00:31.828Z,100221.83
2019-03-02T22:03:02.095Z,100217.31
2019-03-02T22:05:32.348Z,100211.06
2019-03-02T22:08:02.840Z,100202.16
2019-03-02T22:10:57.597Z,100191.94
2019-03-02T22:13:28.058Z,100186.06
2019-03-02T22:16:00.581Z,100178.41
2019-03-02T22:18:33.395Z,100178.78
2019-03-02T22:21:04.016Z,100173.38
2019-03-02T22:23:35.118Z,100170.54
2019-03-02T22:26:06.153Z,100175.73
2019-03-02T22:28:36.665Z,100172.98
2019-03-02T22:31:07.378Z,100176.12
2019-03-02T22:33:39.161Z,100165.45
2019-03-02T22:36:10.640Z,100161.53
2019-03-02T22:38:41.005Z,100147.43
2019-03-02T22:41:11.357Z,100153.20
2019-03-02T22:43:41.847Z,100151.03
2019-03-02T22:46:12.115Z,100143.83
2019-03-02T22:48:43.403Z,100148.86
2019-03-02T22:51:14.219Z,100149.99
2019-03-02T22:53:44.593Z,100147.05
2019-03-02T22:56:15.019Z,100147.25
2019-03-02T22:58:44.771Z,100140.52
2019-03-02T23:01:32.765Z,100135.86
2019-03-02T23:04:03.097Z,100136.13
2019-03-02T23:06:35.770Z,100125.68
2019-03-02T23:09:09.596Z,100111.92
2019-03-02T23:11:40.044Z,100113.31
2019-03-02T23:14:10.745Z,100105.55
2019-03-02T23:16:41.073Z,100088.93
2019-03-02T23:19:11.345Z,100088.34
2019-03-02T23:21:47.669Z,100086.52
2019-03-02T23:24:17.877Z,100086.95
2019-03-02T23:26:48.917Z,100080.66
2019-03-02T23:29:19.930Z,100076.27
2019-03-02T23:31:50.728Z,100083.73
2019-03-02T23:34:21.161Z,100075.81
2019-03-02T23:36:52.215Z,100072.38
2019-03-02T23:39:22.608Z,100064.19
2019-03-02T23:41:53.103Z,100056.00
2019-03-02T23:44:23.445Z,100046.48
2019-03-02T23:46:53.753Z,100041.57
2019-03-02T23:49:24.050Z,100049.09
2019-03-02T23:51:54.747Z,100040.16
2019-03-02T23:54:25.984Z,100041.30
2019-03-02T23:56:56.667Z,100042.19
2019-03-02T23:59:27.255Z,100029.81
